Time;durP1;ratioP1;P1;durP2;ratioP2;P2;SDS_P1;SDS_P2;PMS_P1;PMS_P2;Temp;Humidity;BMP_temperature;BMP_pressure;BME280_temperature;BME280_humidity;BME280_pressure;Samples;Min_cycle;Max_cycle;Signal;HPM_P1;HPM_P2
2023/10/02 00:01:48;;;;;;;37.15;12.90;;;;;;;16.17;100.00;101758.94;4950043;29;20042;-90
2023/10/02 00:04:24;;;;;;;27.92;12.27;;;;;;;16.20;100.00;101758.66;4937468;29;20168;-90
2023/10/02 00:07:05;;;;;;;38.22;14.07;;;;;;;16.24;100.00;101753.75;4948796;29;20054;-91
2023/10/02 00:09:41;;;;;;;39.65;13.15;;;;;;;16.29;100.00;101763.34;4948766;29;20031;-91
2023/10/02 00:12:13;;;;;;;38.00;13.93;;;;;;;16.20;100.00;101753.13;4937433;29;20186;-90
2023/10/02 00:14:41;;;;;;;34.47;12.85;;;;;;;16.12;100.00;101756.56;4939626;29;20456;-91
2023/10/02 00:17:14;;;;;;;41.85;14.93;;;;;;;16.07;100.00;101755.22;4940689;29;20507;-92
2023/10/02 00:19:44;;;;;;;33.17;13.07;;;;;;;15.89;100.00;101753.06;4957210;29;20038;-91
2023/10/02 00:22:37;;;;;;;32.85;13.25;;;;;;;15.81;100.00;101750.09;4940860;29;20031;-90
2023/10/02 00:25:07;;;;;;;;;;;;;;;15.71;100.00;101752.75;4956962;29;20050;-91
2023/10/02 00:27:34;;;;;;;34.92;12.52;;;;;;;15.67;100.00;101761.44;4957458;28;19969;-77
2023/10/02 00:30:01;;;;;;;32.75;12.52;;;;;;;15.62;100.00;101756.31;4945711;28;20023;-77
2023/10/02 00:32:33;;;;;;;37.88;13.15;;;;;;;15.57;100.00;101748.41;4950096;28;20117;-77
2023/10/02 00:35:00;;;;;;;38.23;13.87;;;;;;;15.70;100.00;101758.41;4951019;28;20031;-77
2023/10/02 00:37:44;;;;;;;36.70;13.20;;;;;;;15.66;100.00;101755.03;4945594;28;20405;-77
2023/10/02 00:40:24;;;;;;;34.97;13.77;;;;;;;15.68;100.00;101750.25;4951959;28;20138;-77
2023/10/02 00:42:59;;;;;;;36.17;13.93;;;;;;;15.68;100.00;101736.44;4948458;28;20031;-77
2023/10/02 00:45:30;;;;;;;35.47;13.45;;;;;;;15.52;100.00;101741.56;4948429;29;20113;-77
2023/10/02 00:48:24;;;;;;;32.13;12.85;;;;;;;15.60;100.00;101745.38;4943049;28;20035;-77
2023/10/02 00:50:49;;;;;;;37.85;13.85;;;;;;;15.52;100.00;101747.94;4946290;29;20122;-77
2023/10/02 00:53:24;;;;;;;42.35;13.85;;;;;;;15.54;100.00;101745.03;4947876;28;20035;-77
2023/10/02 00:55:51;;;;;;;35.63;14.30;;;;;;;15.48;100.00;101735.41;4948514;29;20043;-78
2023/10/02 00:58:19;;;;;;;44.08;14.98;;;;;;;15.60;100.00;101741.75;4948739;29;20055;-77
2023/10/02 01:00:50;;;;;;;37.17;14.65;;;;;;;15.59;100.00;101737.25;4947419;29;20062;-77
2023/10/02 01:03:16;;;;;;;36.95;14.32;;;;;;;15.54;100.00;101743.16;4946143;29;20078;-77
2023/10/02 01:05:58;;;;;;;36.10;14.40;;;;;;;15.53;100.00;101744.19;4947231;28;20046;-77
2023/10/02 01:08:24;;;;;;;40.60;14.35;;;;;;;15.50;100.00;101736.16;4945261;28;20035;-77
2023/10/02 01:10:59;;;;;;;39.45;14.90;;;;;;;15.50;100.00;101727.00;4960596;28;20450;-77
2023/10/02 01:13:35;;;;;;;41.85;15.55;;;;;;;15.57;100.00;101731.84;4945041;29;20429;-77
2023/10/02 01:16:07;;;;;;;35.92;15.02;;;;;;;15.61;100.00;101730.59;4945010;29;20089;-77
2023/10/02 01:18:34;;;;;;;37.70;13.88;;;;;;;15.54;100.00;101725.72;4964530;28;20078;-77
2023/10/02 01:21:01;;;;;;;38.78;15.07;;;;;;;15.53;100.00;101730.38;4944533;28;20031;-77
2023/10/02 01:23:33;;;;;;;34.67;14.00;;;;;;;15.55;100.00;101733.00;4943465;29;20042;-77
2023/10/02 01:26:02;;;;;;;38.03;14.68;;;;;;;15.56;100.00;101726.47;4942997;29;20031;-77
2023/10/02 01:28:58;;;;;;;42.88;14.73;;;;;;;15.55;100.00;101727.50;4943620;29;20397;-77
2023/10/02 01:31:42;;;;;;;39.58;14.45;;;;;;;15.55;100.00;101733.00;4946817;29;20040;-77
2023/10/02 01:34:33;;;;;;;48.53;14.88;;;;;;;15.57;100.00;101722.69;4945873;29;20027;-77
2023/10/02 01:37:00;;;;;;;38.17;14.25;;;;;;;15.58;100.00;101730.84;4946857;29;20039;-91
2023/10/02 01:39:25;;;;;;;35.30;13.73;;;;;;;15.55;100.00;101733.88;4936039;28;20099;-90
2023/10/02 01:41:54;;;;;;;34.70;14.07;;;;;;;15.49;100.00;101720.59;4927811;28;20073;-90
2023/10/02 01:44:22;;;;;;;34.85;13.82;;;;;;;15.52;100.00;101733.28;4945180;28;20485;-91
2023/10/02 01:46:52;;;;;;;35.05;12.68;;;;;;;15.51;100.00;101734.25;4974252;28;20023;-91
2023/10/02 01:49:25;;;;;;;40.65;14.85;;;;;;;15.53;100.00;101724.84;4937094;29;20478;-91
2023/10/02 01:51:57;;;;;;;37.15;12.93;;;;;;;15.48;100.00;101721.63;4954355;29;20023;-91
2023/10/02 01:54:23;;;;;;;47.88;15.05;;;;;;;15.49;100.00;101728.88;4952118;29;20051;-92
2023/10/02 01:56:49;;;;;;;42.45;14.45;;;;;;;15.46;100.00;101720.84;4923742;29;20049;-91
2023/10/02 01:59:16;;;;;;;37.65;14.13;;;;;;;15.49;100.00;101723.34;4962658;28;20059;-91
2023/10/02 02:01:56;;;;;;;37.60;13.48;;;;;;;15.54;100.00;101723.81;4959018;29;20019;-90
2023/10/02 02:04:28;;;;;;;40.08;13.63;;;;;;;15.57;100.00;101729.09;4974173;28;20054;-92
2023/10/02 02:06:57;;;;;;;38.88;12.60;;;;;;;15.55;100.00;101728.34;4963987;28;20061;-90
2023/10/02 02:09:26;;;;;;;40.90;14.18;;;;;;;15.52;100.00;101713.94;4931096;28;20041;-90
2023/10/02 02:12:10;;;;;;;37.80;13.93;;;;;;;15.55;100.00;101720.06;4985821;28;20031;-89
2023/10/02 02:14:49;;;;;;;37.08;13.77;;;;;;;15.55;100.00;101724.72;4953256;29;20107;-89
2023/10/02 02:17:18;;;;;;;37.75;13.40;;;;;;;15.48;100.00;101724.38;4952655;28;20042;-90
2023/10/02 02:19:48;;;;;;;38.80;13.75;;;;;;;15.50;100.00;101721.50;4953146;28;20027;-90
2023/10/02 02:22:19;;;;;;;40.97;12.82;;;;;;;15.52;100.00;101713.94;4942252;28;20046;-90
2023/10/02 02:24:46;;;;;;;40.78;13.65;;;;;;;15.46;100.00;101720.00;4968598;28;20086;-91
2023/10/02 02:27:13;;;;;;;34.90;13.35;;;;;;;15.49;100.00;101706.78;4954282;28;20090;-92
2023/10/02 02:29:39;;;;;;;37.85;14.57;;;;;;;15.48;100.00;101718.84;4939494;28;20042;-92
2023/10/02 02:32:07;;;;;;;36.50;13.45;;;;;;;15.47;100.00;101721.75;4939451;28;20118;-91
2023/10/02 02:34:32;;;;;;;41.70;13.75;;;;;;;15.38;100.00;101704.97;4930318;28;20039;-91
2023/10/02 02:36:59;;;;;;;41.92;14.18;;;;;;;15.46;100.00;101720.84;4953364;28;20058;-90
2023/10/02 02:39:27;;;;;;;38.38;13.55;;;;;;;15.47;100.00;101714.34;4927252;28;20037;-91
2023/10/02 02:42:18;;;;;;;34.97;13.50;;;;;;;15.43;100.00;101716.50;4936515;28;20106;-91
2023/10/02 02:44:50;;;;;;;39.65;14.23;;;;;;;15.50;100.00;101715.97;4958823;28;20447;-90
2023/10/02 02:47:20;;;;;;;37.78;14.07;;;;;;;15.50;100.00;101707.69;4952346;28;20026;-79
2023/10/02 02:49:58;;;;;;;34.20;13.10;;;;;;;15.46;100.00;101712.56;4968041;28;20477;-77
2023/10/02 02:52:32;;;;;;;36.63;13.20;;;;;;;15.49;100.00;101715.06;4967768;28;20027;-77
2023/10/02 02:54:59;;;;;;;36.33;14.38;;;;;;;15.50;100.00;101705.78;4974664;28;20038;-77
2023/10/02 02:57:31;;;;;;;36.22;13.90;;;;;;;15.44;100.00;101700.81;4949670;28;20594;-77
2023/10/02 03:02:53;;;;;;;53.80;14.35;;;;;;;15.40;100.00;101699.31;4963214;28;20043;-76
2023/10/02 03:05:21;;;;;;;38.35;14.68;;;;;;;15.37;100.00;101697.69;4954542;28;20038;-77
2023/10/02 03:07:49;;;;;;;40.63;13.45;;;;;;;15.33;100.00;101692.56;4948806;29;20030;-77
2023/10/02 03:10:17;;;;;;;36.15;13.60;;;;;;;15.33;100.00;101692.56;4950189;28;20041;-77
2023/10/02 03:12:50;;;;;;;32.50;13.38;;;;;;;15.41;100.00;101690.03;4953029;28;20170;-77
2023/10/02 03:15:20;;;;;;;40.30;13.70;;;;;;;15.34;100.00;101689.69;4939946;28;20520;-77
2023/10/02 03:17:46;;;;;;;38.95;14.55;;;;;;;15.35;100.00;101691.44;4951844;28;20026;-77
2023/10/02 03:20:24;;;;;;;44.45;15.57;;;;;;;15.32;100.00;101686.19;4952589;28;20035;-77
2023/10/02 03:22:57;;;;;;;38.40;15.38;;;;;;;15.37;100.00;101683.03;4963472;28;20119;-77
2023/10/02 03:25:28;;;;;;;38.40;15.07;;;;;;;15.28;100.00;101686.56;4938946;28;20031;-77
2023/10/02 03:27:57;;;;;;;41.75;14.73;;;;;;;15.31;100.00;101673.38;4970976;28;20030;-77
2023/10/02 03:30:38;;;;;;;40.72;15.32;;;;;;;15.31;100.00;101672.50;4930986;29;20050;-76
2023/10/02 03:33:17;;;;;;;37.08;13.93;;;;;;;15.24;100.00;101681.31;4955846;28;20576;-77
2023/10/02 03:35:56;;;;;;;42.85;14.55;;;;;;;15.24;100.00;101664.75;4972956;28;20029;-77
2023/10/02 03:38:23;;;;;;;46.90;15.00;;;;;;;15.23;100.00;101664.88;4946518;28;20494;-77
2023/10/02 03:40:53;;;;;;;41.35;14.40;;;;;;;15.28;100.00;101661.75;4938945;28;20035;-77
2023/10/02 03:43:19;;;;;;;42.10;14.75;;;;;;;15.25;100.00;101673.94;4950659;28;20027;-77
2023/10/02 03:45:46;;;;;;;35.90;13.90;;;;;;;15.24;100.00;101673.03;4955554;28;20046;-77
2023/10/02 03:48:15;;;;;;;38.42;14.20;;;;;;;15.20;100.00;101674.31;4952094;28;20035;-77
2023/10/02 03:50:41;;;;;;;32.35;13.18;;;;;;;15.20;100.00;101668.81;4933373;28;20038;-78
2023/10/02 03:53:12;;;;;;;40.00;14.63;;;;;;;15.20;100.00;101674.31;4963905;28;20063;-78
2023/10/02 03:55:39;;;;;;;43.40;14.35;;;;;;;15.23;100.00;101673.16;4948752;28;20373;-78
2023/10/02 03:58:06;;;;;;;39.72;15.00;;;;;;;15.17;100.00;101660.78;4964396;28;20023;-77
2023/10/02 04:00:43;;;;;;;37.30;14.70;;;;;;;15.21;100.00;101656.75;4969838;28;20065;-77
2023/10/02 04:03:08;;;;;;;37.30;13.38;;;;;;;15.20;100.00;101657.78;4953016;28;20048;-76
2023/10/02 04:05:42;;;;;;;39.95;14.18;;;;;;;15.11;100.00;101664.06;4973361;28;20045;-76
2023/10/02 04:08:21;;;;;;;41.88;14.35;;;;;;;15.17;100.00;101671.81;4966315;28;20031;-76
2023/10/02 04:10:55;;;;;;;36.08;13.70;;;;;;;15.17;100.00;101668.19;4954320;28;20385;-77
2023/10/02 04:13:29;;;;;;;38.55;14.32;;;;;;;15.13;100.00;101670.31;4967147;28;20554;-77
2023/10/02 04:16:28;;;;;;;35.15;13.63;;;;;;;15.14;100.00;101672.09;4971117;28;20034;-77
2023/10/02 04:18:46;;;;;;;38.75;13.50;;;;;;;15.16;100.00;101663.69;4971558;28;20041;-77
2023/10/02 04:21:19;;;;;;;41.67;14.70;;;;;;;15.18;100.00;101667.16;4944519;28;20039;-78
2023/10/02 04:23:45;;;;;;;37.47;13.98;;;;;;;15.13;100.00;101656.53;4948406;28;20044;-77
2023/10/02 04:26:21;;;;;;;35.50;13.02;;;;;;;15.09;100.00;101668.84;4967019;28;20129;-77
2023/10/02 04:31:41;;;;;;;34.90;13.93;;;;;;;15.20;100.00;101674.31;4969688;28;20065;-77
2023/10/02 04:34:29;;;;;;;43.25;14.10;;;;;;;15.16;100.00;101669.19;4946945;28;20481;-77
2023/10/02 04:36:54;;;;;;;38.05;12.93;;;;;;;15.07;100.00;101670.88;4950956;28;20018;-78
2023/10/02 04:44:45;;;;;;;37.92;13.80;;;;;;;14.97;100.00;101673.53;4958894;28;20455;-77
2023/10/02 04:47:20;;;;;;;39.35;14.23;;;;;;;14.87;100.00;101676.19;4973855;28;20038;-78
2023/10/02 04:55:24;;;;;;;36.72;14.85;;;;;;;14.85;100.00;101672.66;4969269;28;20058;-76
2023/10/02 04:58:02;;;;;;;37.42;14.73;;;;;;;14.87;100.00;101664.25;4965006;28;20379;-76
2023/10/02 05:00:38;;;;;;;38.63;13.70;;;;;;;14.88;100.00;101664.13;4948943;28;20038;-77
2023/10/02 05:03:49;;;;;;;31.10;12.88;;;;;;;14.87;100.00;101670.69;4954082;28;20058;-76
2023/10/02 05:05:58;;;;;;;40.35;14.38;;;;;;;14.77;100.00;101668.81;4954737;28;20081;-76
2023/10/02 05:08:41;;;;;;;37.92;14.77;;;;;;;14.68;100.00;101667.72;4930045;28;20043;-77
2023/10/02 05:11:08;;;;;;;37.53;13.80;;;;;;;14.68;100.00;101668.56;4946486;28;20408;-77
2023/10/02 05:16:29;;;;;;;38.25;14.07;;;;;;;14.73;100.00;101665.44;4974200;28;20035;-77
2023/10/02 05:18:56;;;;;;;44.40;15.00;;;;;;;14.68;100.00;101670.47;4954586;28;20026;-77
2023/10/02 05:21:35;;;;;;;36.58;13.75;;;;;;;14.70;100.00;101663.81;4973932;28;20473;-77
2023/10/02 05:24:15;;;;;;;40.40;14.85;;;;;;;14.70;100.00;101660.19;4968343;28;20508;-76
2023/10/02 05:26:44;;;;;;;42.30;14.60;;;;;;;14.72;100.00;101658.16;4962886;28;20541;-76
2023/10/02 05:29:17;;;;;;;38.00;14.90;;;;;;;14.63;100.00;101665.34;4963603;28;20030;-76
2023/10/02 05:31:43;;;;;;;38.47;14.65;;;;;;;14.72;100.00;101660.06;4963070;28;20449;-76
2023/10/02 05:34:13;;;;;;;36.47;13.40;;;;;;;14.72;100.00;101662.81;4966644;28;20038;-77
2023/10/02 05:36:55;;;;;;;45.60;16.88;;;;;;;14.70;100.00;101655.53;4965444;28;20049;-76
2023/10/02 05:39:28;;;;;;;38.30;14.35;;;;;;;14.69;100.00;101659.31;4926713;28;20031;-76
2023/10/02 05:42:05;;;;;;;38.45;13.80;;;;;;;14.70;100.00;101663.81;4936886;28;20128;-77
2023/10/02 05:44:33;;;;;;;45.97;14.77;;;;;;;14.75;100.00;101674.44;4945157;28;20023;-77
2023/10/02 05:47:05;;;;;;;43.33;14.40;;;;;;;14.72;100.00;101684.88;4961771;28;20054;-77
2023/10/02 05:49:32;;;;;;;46.10;14.50;;;;;;;14.74;100.00;101688.34;4928820;28;20074;-77
2023/10/02 05:52:00;;;;;;;39.55;14.50;;;;;;;14.68;100.00;101674.09;4967914;28;20038;-76
2023/10/02 05:54:29;;;;;;;48.80;14.55;;;;;;;14.75;100.00;101679.97;4933428;28;20503;-76
2023/10/02 05:57:08;;;;;;;42.88;14.18;;;;;;;14.78;100.00;101685.22;4970243;28;20026;-76
2023/10/02 05:59:54;;;;;;;43.78;14.80;;;;;;;14.82;100.00;101685.84;4967992;28;20050;-76
2023/10/02 06:02:22;;;;;;;46.53;14.68;;;;;;;14.82;100.00;101691.34;4962188;28;20042;-76
2023/10/02 06:04:53;;;;;;;43.63;14.65;;;;;;;14.85;100.00;101675.41;4945292;28;20030;-77
2023/10/02 06:10:27;;;;;;;48.08;15.20;;;;;;;15.03;100.00;101685.91;4963171;28;20053;-77
2023/10/02 06:13:02;;;;;;;35.60;13.88;;;;;;;15.11;100.00;101683.38;4948917;28;20489;-76
2023/10/02 06:15:43;;;;;;;40.10;14.32;;;;;;;14.97;100.00;101681.81;4970050;28;20031;-76
2023/10/02 06:18:09;;;;;;;48.13;14.45;;;;;;;15.08;100.00;101691.91;4935647;28;20031;-77
2023/10/02 06:20:34;;;;;;;35.75;14.57;;;;;;;15.15;100.00;101690.41;4970032;28;20121;-77
2023/10/02 06:23:19;;;;;;;51.65;16.08;;;;;;;15.14;100.00;101691.41;4932768;28;20109;-76
2023/10/02 06:25:46;;;;;;;42.42;14.82;;;;;;;15.24;100.00;101697.00;4963565;28;20030;-77
2023/10/02 06:28:25;;;;;;;48.25;14.80;;;;;;;15.31;100.00;101700.09;4953434;28;20078;-77
2023/10/02 06:30:51;;;;;;;39.60;14.90;;;;;;;15.35;100.00;101694.19;4956121;28;20034;-77
2023/10/02 06:33:19;;;;;;;45.45;14.25;;;;;;;15.46;100.00;101693.25;4953420;28;20076;-77
2023/10/02 06:35:56;;;;;;;40.20;13.68;;;;;;;15.52;100.00;101691.88;4968550;28;20023;-77
2023/10/02 06:38:22;;;;;;;43.58;14.75;;;;;;;15.65;100.00;101700.81;4940090;28;20154;-76
2023/10/02 06:40:59;;;;;;;42.30;14.05;;;;;;;15.75;100.00;101695.38;4964538;28;20037;-76
2023/10/02 06:43:32;;;;;;;42.53;14.50;;;;;;;15.76;100.00;101697.16;4956529;28;20027;-78
2023/10/02 06:46:09;;;;;;;46.47;14.73;;;;;;;15.79;100.00;101699.66;4954476;28;20023;-78
2023/10/02 06:48:41;;;;;;;38.58;14.10;;;;;;;15.82;100.00;101704.03;4957115;28;20404;-77
2023/10/02 06:51:07;;;;;;;44.45;15.38;;;;;;;15.74;100.00;101702.78;4957245;28;20061;-78
2023/10/02 06:53:33;;;;;;;39.75;14.75;;;;;;;15.90;100.00;101702.31;4939473;28;20066;-77
2023/10/02 06:55:59;;;;;;;46.20;15.32;;;;;;;15.93;100.00;101704.81;4956529;28;20531;-78
2023/10/02 06:58:25;;;;;;;44.63;16.10;;;;;;;16.05;100.00;101701.97;4957314;28;20039;-77
2023/10/02 07:01:02;;;;;;;41.03;15.75;;;;;;;16.16;100.00;101701.91;4946944;28;20055;-77
2023/10/02 07:03:27;;;;;;;42.38;15.88;;;;;;;16.29;100.00;101699.78;4950266;29;20039;-77
2023/10/02 07:05:53;;;;;;;41.95;16.70;;;;;;;16.36;100.00;101700.09;4942867;29;20032;-77
2023/10/02 07:08:21;;;;;;;42.85;15.00;;;;;;;16.40;100.00;101693.31;4949437;29;20137;-78
2023/10/02 07:10:48;;;;;;;42.20;15.70;;;;;;;16.44;100.00;101699.44;4944535;28;20221;-77
2023/10/02 07:13:20;;;;;;;42.25;16.23;;;;;;;16.48;100.00;101707.31;4953740;28;20044;-78
2023/10/02 07:15:55;;;;;;;45.75;14.98;;;;;;;16.65;100.00;101715.94;4950275;28;20038;-77
2023/10/02 07:18:21;;;;;;;44.45;17.85;;;;;;;16.75;100.00;101710.44;4947899;28;20035;-77
2023/10/02 07:20:52;;;;;;;41.13;15.63;;;;;;;16.75;100.00;101691.97;4943398;29;20034;-78
2023/10/02 07:23:22;;;;;;;42.10;16.00;;;;;;;17.00;100.00;101698.88;4934091;28;20485;-77
2023/10/02 07:25:50;;;;;;;41.97;16.30;;;;;;;17.11;100.00;101697.91;4949910;28;20165;-77
2023/10/02 07:28:21;;;;;;;46.13;17.40;;;;;;;17.22;100.00;101699.66;4952837;28;20489;-78
2023/10/02 07:30:50;;;;;;;47.53;17.05;;;;;;;17.47;100.00;101700.09;4945903;28;20047;-78
2023/10/02 07:33:19;;;;;;;42.35;16.42;;;;;;;17.66;100.00;101697.34;4948009;29;20023;-77
2023/10/02 07:35:54;;;;;;;46.53;16.15;;;;;;;17.73;100.00;101694.84;4948130;29;20059;-77
2023/10/02 07:38:30;;;;;;;48.88;17.90;;;;;;;17.74;100.00;101688.25;4947333;28;20040;-76
2023/10/02 07:41:08;;;;;;;53.53;16.80;;;;;;;17.95;100.00;101693.66;4946760;29;20106;-76
2023/10/02 07:43:34;;;;;;;44.65;16.40;;;;;;;17.97;100.00;101689.72;4945319;29;20516;-77
2023/10/02 07:46:18;;;;;;;40.42;15.88;;;;;;;18.23;100.00;101694.59;4928737;29;20422;-77
2023/10/02 07:48:57;;;;;;;42.88;17.70;;;;;;;18.18;100.00;101689.53;4951001;29;20765;-78
2023/10/02 07:51:37;;;;;;;47.88;16.88;;;;;;;18.40;100.00;101679.06;4947731;28;20417;-78
2023/10/02 07:54:06;;;;;;;48.10;16.75;;;;;;;18.39;100.00;101690.31;4949551;28;20131;-77
2023/10/02 07:56:33;;;;;;;50.40;17.13;;;;;;;18.75;100.00;101691.31;4949188;29;20031;-77
2023/10/02 07:59:07;;;;;;;51.75;17.42;;;;;;;18.96;100.00;101702.16;4949723;28;20054;-77
2023/10/02 08:01:33;;;;;;;49.70;17.27;;;;;;;19.13;100.00;101685.69;4967903;28;20059;-77
2023/10/02 08:04:03;;;;;;;54.55;18.05;;;;;;;19.13;100.00;101689.34;4973425;28;20027;-77
2023/10/02 08:06:36;;;;;;;46.70;17.75;;;;;;;19.25;100.00;101689.97;4950859;28;20035;-77
2023/10/02 08:09:35;;;;;;;57.72;17.80;;;;;;;19.47;100.00;101689.50;4947523;28;20058;-77
2023/10/02 08:12:01;;;;;;;44.35;17.00;;;;;;;19.82;100.00;101697.97;4948440;28;20058;-77
2023/10/02 08:14:38;;;;;;;52.22;17.98;;;;;;;19.88;100.00;101690.94;4943343;28;20493;-77
2023/10/02 08:17:27;;;;;;;43.30;17.52;;;;;;;19.59;100.00;101695.69;4952634;28;20795;-77
2023/10/02 08:19:54;;;;;;;46.58;18.48;;;;;;;19.51;100.00;101706.72;4945969;29;20031;-77
2023/10/02 08:22:35;;;;;;;47.97;18.08;;;;;;;19.35;100.00;101698.22;4948912;28;20449;-77
2023/10/02 08:25:04;;;;;;;51.05;18.30;;;;;;;19.39;100.00;101694.97;4966345;28;20146;-77
2023/10/02 08:27:32;;;;;;;53.58;19.05;;;;;;;19.45;100.00;101686.00;4945979;29;20046;-77
2023/10/02 08:29:57;;;;;;;53.25;18.65;;;;;;;19.26;100.00;101684.25;4935592;28;20031;-77
2023/10/02 08:32:30;;;;;;;47.75;18.35;;;;;;;19.12;100.00;101672.84;4951837;28;20078;-77
2023/10/02 08:34:56;;;;;;;;;;;;;;;19.13;100.00;101682.91;4954595;28;20206;-77
2023/10/02 08:37:23;;;;;;;50.83;18.70;;;;;;;19.19;100.00;101690.63;4973462;28;19918;-77
2023/10/02 08:39:51;;;;;;;44.05;16.75;;;;;;;19.87;100.00;101684.47;4970181;28;20097;-77
2023/10/02 08:42:18;;;;;;;50.20;19.30;;;;;;;19.86;100.00;101701.31;4951085;28;20133;-77
2023/10/02 08:44:43;;;;;;;53.17;18.65;;;;;;;20.18;100.00;101700.69;4969786;28;20031;-77
2023/10/02 08:47:24;;;;;;;46.08;17.45;;;;;;;20.63;100.00;101705.13;4955109;28;20041;-77
2023/10/02 08:50:04;;;;;;;50.33;19.60;;;;;;;21.27;100.00;101705.50;4969821;28;20030;-77
2023/10/02 08:52:47;;;;;;;50.65;17.80;;;;;;;21.24;100.00;101702.22;4952113;28;20094;-77
2023/10/02 08:55:33;;;;;;;50.95;18.45;;;;;;;21.27;100.00;101699.94;4969342;28;20129;-78
2023/10/02 08:58:42;;;;;;;50.92;19.05;;;;;;;21.15;100.00;101694.88;4950385;28;20061;-77
2023/10/02 09:04:15;;;;;;;51.38;18.13;;;;;;;21.94;100.00;101682.22;4948287;28;20027;-77
2023/10/02 09:06:41;;;;;;;45.13;17.77;;;;;;;21.95;100.00;101680.31;4971168;28;20497;-77
2023/10/02 09:09:17;;;;;;;45.50;16.90;;;;;;;22.14;100.00;101688.28;4976992;28;20114;-78
2023/10/02 09:11:52;;;;;;;41.88;17.25;;;;;;;22.31;100.00;101677.13;4950084;28;20041;-77
2023/10/02 09:16:47;;;;;;;44.47;17.67;;;;;;;21.43;100.00;101682.38;4967730;28;20057;-78
2023/10/02 09:19:31;;;;;;;52.92;17.80;;;;;;;21.41;100.00;101678.88;4923857;29;20461;-77
2023/10/02 09:22:06;;;;;;;37.58;16.98;;;;;;;21.53;100.00;101681.38;4965575;28;20046;-77
2023/10/02 09:24:40;;;;;;;39.67;15.93;;;;;;;21.88;100.00;101682.94;4936031;28;20126;-78
2023/10/02 09:27:30;;;;;;;46.20;16.90;;;;;;;21.22;100.00;101668.94;4971027;28;20117;-77
2023/10/02 09:32:51;;;;;;;46.92;16.33;;;;;;;21.44;100.00;101672.97;4968897;28;20150;-79
2023/10/02 09:35:29;;;;;;;45.05;16.52;;;;;;;21.71;100.00;101672.81;4968917;28;20153;-80
2023/10/02 09:38:03;;;;;;;47.50;16.67;;;;;;;22.26;100.00;101669.25;4972588;28;20105;-78
2023/10/02 09:43:23;;;;;;;45.08;17.20;;;;;;;22.34;100.00;101673.97;4972422;28;20049;-79
2023/10/02 09:45:54;;;;;;;43.90;16.30;;;;;;;22.02;100.00;101671.06;4949853;28;20126;-78
2023/10/02 09:48:46;;;;;;;44.38;16.23;;;;;;;22.03;100.00;101674.72;4966513;28;20027;-79
2023/10/02 09:51:30;;;;;;;;;;;;;;;22.08;100.00;101672.25;4963105;28;20085;-79
2023/10/02 09:54:05;;;;;;;40.90;15.30;;;;;;;21.71;100.00;101657.00;4962305;28;20548;-79
2023/10/02 09:57:24;;;;;;;49.83;16.02;;;;;;;21.59;100.00;101650.00;4949131;28;20035;-79
2023/10/02 09:59:48;;;;;;;41.13;15.88;;;;;;;21.58;100.00;101654.72;4940564;28;20076;-79
2023/10/02 10:07:46;;;;;;;39.40;15.63;;;;;;;21.81;100.00;101656.81;4961491;28;20142;-78
2023/10/02 10:13:27;;;;;;;46.78;17.60;;;;;;;21.84;100.00;101660.13;4964471;28;20062;-79
2023/10/02 10:16:18;;;;;;;50.15;17.90;;;;;;;21.93;100.00;101654.53;4959030;28;20098;-79
2023/10/02 10:19:41;;;;;;;45.13;17.05;;;;;;;22.41;100.00;101652.66;4952134;28;20038;-78
2023/10/02 10:22:03;;;;;;;45.28;16.70;;;;;;;22.98;100.00;101643.13;4952899;28;20043;-78
2023/10/02 10:24:51;;;;;;;48.35;17.23;;;;;;;22.85;100.00;101643.75;4949842;28;20037;-80
2023/10/02 10:27:41;;;;;;;43.20;16.42;;;;;;;22.51;100.00;101635.72;4954369;28;20027;-78
2023/10/02 10:30:20;;;;;;;45.55;16.60;;;;;;;22.38;100.00;101641.88;4960606;28;20022;-78
2023/10/02 10:32:46;;;;;;;44.15;17.23;;;;;;;22.80;100.00;101646.22;4943891;28;20023;-78
2023/10/02 10:35:30;;;;;;;44.22;16.88;;;;;;;22.81;100.00;101642.38;4952545;28;20117;-78
2023/10/02 10:37:56;;;;;;;47.35;16.75;;;;;;;22.63;100.00;101634.28;4950148;28;20031;-78
2023/10/02 10:40:44;;;;;;;45.75;17.48;;;;;;;22.68;100.00;101640.16;4963946;28;20054;-78
2023/10/02 10:43:15;;;;;;;46.58;18.20;;;;;;;22.56;100.00;101633.25;4949665;28;20070;-77
2023/10/02 10:45:41;;;;;;;51.20;18.17;;;;;;;22.60;100.00;101631.84;4964691;28;21298;-78
2023/10/02 10:48:21;;;;;;;44.38;18.65;;;;;;;22.84;100.00;101632.75;4945246;28;20046;-78
2023/10/02 10:51:20;;;;;;;60.25;19.98;;;;;;;22.85;100.00;101632.56;4970720;28;20047;-78
2023/10/02 10:53:47;;;;;;;47.83;18.38;;;;;;;22.93;100.00;101632.50;4925267;28;20142;-77
2023/10/02 10:56:19;;;;;;;51.83;19.40;;;;;;;22.93;100.00;101632.50;4958965;28;20118;-77
2023/10/02 10:58:52;;;;;;;49.08;17.60;;;;;;;23.01;100.00;101633.53;4945031;28;20050;-78
2023/10/02 11:01:20;;;;;;;44.80;17.98;;;;;;;22.93;100.00;101635.31;4946865;28;20031;-77
2023/10/02 11:03:54;;;;;;;52.42;18.05;;;;;;;22.87;100.00;101641.63;4946658;28;20019;-78
2023/10/02 11:06:21;;;;;;;43.65;18.15;;;;;;;22.86;100.00;101633.47;4965939;28;20508;-77
2023/10/02 11:09:18;;;;;;;46.20;18.58;;;;;;;22.84;100.00;101646.72;4927674;29;20085;-77
2023/10/02 11:11:49;;;;;;;46.72;17.65;;;;;;;23.03;100.00;101635.06;4954906;28;20345;-77
2023/10/02 11:14:21;;;;;;;44.58;17.38;;;;;;;23.17;100.00;101632.56;4948011;28;20023;-78
2023/10/02 11:17:01;;;;;;;;;;;;;;;23.00;100.00;101629.84;4953543;28;20035;-78
2023/10/02 11:19:35;;;;;;;45.92;16.95;;;;;;;22.88;100.00;101628.56;4970353;28;20300;-77
2023/10/02 11:24:53;;;;;;;45.97;17.42;;;;;;;22.78;100.00;101617.59;4969325;28;20148;-77
2023/10/02 11:27:22;;;;;;;51.63;17.48;;;;;;;22.75;100.00;101604.00;4973016;28;20062;-77
2023/10/02 11:30:01;;;;;;;45.75;17.65;;;;;;;22.93;100.00;101606.53;4950279;28;20034;-77
2023/10/02 11:33:00;;;;;;;50.35;17.70;;;;;;;23.03;100.00;101600.69;4964260;28;20409;-78
2023/10/02 11:35:29;;;;;;;53.35;17.45;;;;;;;23.05;100.00;101604.16;4965352;28;20050;-78
2023/10/02 11:37:56;;;;;;;52.17;19.08;;;;;;;23.05;100.00;101593.00;4950732;28;20033;-77
2023/10/02 11:40:25;;;;;;;52.08;18.42;;;;;;;23.12;100.00;101594.88;4945652;28;20071;-78
2023/10/02 11:42:51;;;;;;;50.72;18.70;;;;;;;23.08;100.00;101595.44;4948585;28;20058;-78
2023/10/02 11:45:17;;;;;;;48.65;19.15;;;;;;;23.23;100.00;101587.13;4945071;28;20049;-77
2023/10/02 11:47:43;;;;;;;55.38;18.50;;;;;;;23.33;100.00;101584.06;4966944;28;20412;-78
2023/10/02 11:50:08;;;;;;;53.22;17.58;;;;;;;23.58;100.00;101585.59;4951090;28;20507;-77
2023/10/02 11:52:34;;;;;;;48.30;17.65;;;;;;;23.48;100.00;101573.78;4969910;28;20077;-78
2023/10/02 11:55:05;;;;;;;50.55;17.70;;;;;;;23.45;100.00;101571.41;4926321;29;20077;-78
2023/10/02 11:57:33;;;;;;;48.17;17.63;;;;;;;23.69;100.00;101570.25;4964733;28;20039;-77
2023/10/02 12:00:07;;;;;;;51.35;17.85;;;;;;;23.70;100.00;101565.56;4951937;28;20051;-78
2023/10/02 12:02:33;;;;;;;50.55;18.77;;;;;;;23.94;100.00;101572.81;4955084;28;20058;-77
2023/10/02 12:04:58;;;;;;;52.13;18.77;;;;;;;23.91;100.00;101567.59;4947089;29;20477;-77
2023/10/02 12:07:24;;;;;;;51.00;19.92;;;;;;;23.85;100.00;101569.25;4928129;28;20043;-77
2023/10/02 12:09:49;;;;;;;50.97;20.02;;;;;;;23.83;100.00;101575.03;4930672;29;20117;-77
2023/10/02 12:12:16;;;;;;;49.22;18.48;;;;;;;23.77;100.00;101569.31;4967779;28;20038;-77
2023/10/02 12:14:42;;;;;;;46.72;18.80;;;;;;;23.92;100.00;101566.56;4970665;28;20027;-78